Lake Hughes, California
Current Conditions -  °F | °C
As of 3:56 PM on Friday 28 Nov 2014 (Local Time) from KWJF Reporting Station
Clear Clear  
Wind Chill: 74°   Ceiling: Unl
Heat Index: 74°   Visibility: 10mi
Dew Point: 18°   Wind: 15mph
Humidity: 12%   Direction: 240°WSW
Pressure: 29.93"   Gusts: NA
Location:  34.68°N, 118.45°W
Report Text: KWJF 282356Z 24013KT 10SM CLR 23/M08 A2993 RMK AO2 SLP135 T02331078 10261 20111 56016
Loading
Personal Weather Stations






























Interactive Weather Map New forecast layout! Learn more

10-Day Weather Forecast

Advertisements
Track Severe Weather on mobile